createdAt,value
2023-01-08T00:00:52.192Z,97.77
2023-01-08T00:01:52.077Z,97.98
2023-01-08T00:02:52.208Z,98.19
2023-01-08T00:03:52.145Z,98.29
2023-01-08T00:04:52.029Z,97.88
2023-01-08T00:05:52.032Z,97.36
2023-01-08T00:06:52.018Z,96.59
2023-01-08T00:07:52.001Z,96.70
2023-01-08T00:08:52.045Z,96.91
2023-01-08T00:09:51.964Z,97.05
2023-01-08T00:10:51.940Z,97.05
2023-01-08T00:11:51.943Z,97.16
2023-01-08T00:12:51.931Z,97.26
2023-01-08T00:13:51.916Z,97.26
2023-01-08T00:14:51.989Z,97.05
2023-01-08T00:15:51.906Z,96.95
2023-01-08T00:16:51.995Z,97.26
2023-01-08T00:17:51.884Z,97.36
2023-01-08T00:18:51.876Z,97.72
2023-01-08T00:19:51.889Z,97.72
2023-01-08T00:20:51.833Z,97.61
2023-01-08T00:21:51.829Z,97.51
2023-01-08T00:22:51.799Z,97.51
2023-01-08T00:23:51.803Z,97.72
2023-01-08T00:24:51.829Z,98.02
2023-01-08T00:25:51.784Z,97.92
2023-01-08T00:26:51.786Z,97.51
2023-01-08T00:27:51.766Z,97.72
2023-01-08T00:28:51.755Z,98.18
2023-01-08T00:29:51.768Z,98.38
2023-01-08T00:30:51.752Z,98.18
2023-01-08T00:31:51.759Z,97.92
2023-01-08T00:32:51.716Z,97.82
2023-01-08T00:33:51.736Z,98.07
2023-01-08T00:34:51.739Z,98.49
2023-01-08T00:35:51.768Z,98.74
2023-01-08T00:36:51.643Z,99.15
2023-01-08T00:37:51.686Z,98.94
2023-01-08T00:38:51.635Z,99.05
2023-01-08T00:39:51.641Z,99.15
2023-01-08T00:40:51.607Z,99.25
2023-01-08T00:41:51.585Z,99.05
2023-01-08T00:42:51.616Z,99.05
2023-01-08T00:43:51.569Z,99.15
2023-01-08T00:44:51.601Z,99.35
2023-01-08T00:45:51.667Z,99.56
2023-01-08T00:46:51.562Z,99.15
2023-01-08T00:47:51.529Z,99.35
2023-01-08T00:48:51.513Z,99.46
2023-01-08T00:49:51.553Z,99.46
2023-01-08T00:50:51.495Z,99.05
2023-01-08T00:51:51.496Z,99.35
2023-01-08T00:52:51.488Z,99.51
2023-01-08T00:53:51.452Z,99.99
2023-01-08T00:54:51.484Z,99.92
2023-01-08T00:55:51.441Z,99.92
2023-01-08T00:56:51.435Z,99.99
2023-01-08T00:57:51.415Z,99.99
2023-01-08T00:58:51.418Z,99.99
2023-01-08T00:59:51.449Z,99.99
2023-01-08T01:00:51.380Z,99.77
2023-01-08T01:01:51.526Z,99.25
2023-01-08T01:02:51.374Z,99.15
2023-01-08T01:03:51.372Z,99.25
2023-01-08T01:04:51.369Z,99.25
2023-01-08T01:05:51.347Z,99.35
2023-01-08T01:06:51.318Z,99.56
2023-01-08T01:07:51.327Z,99.92
2023-01-08T01:08:51.280Z,99.99
2023-01-08T01:09:51.312Z,99.99
2023-01-08T01:10:51.252Z,99.99
2023-01-08T01:11:51.239Z,99.99
2023-01-08T01:12:51.279Z,99.99
2023-01-08T01:13:51.244Z,99.99
2023-01-08T01:14:51.247Z,99.99
2023-01-08T01:15:51.210Z,99.99
2023-01-08T01:16:51.295Z,99.99
2023-01-08T01:17:51.213Z,99.99
2023-01-08T01:18:51.169Z,99.99
2023-01-08T01:19:51.219Z,99.99
2023-01-08T01:20:51.147Z,99.66
2023-01-08T01:21:51.138Z,99.56
2023-01-08T01:22:51.142Z,99.46
2023-01-08T01:23:51.109Z,99.46
2023-01-08T01:24:51.146Z,99.56
2023-01-08T01:25:51.100Z,99.66
2023-01-08T01:26:51.088Z,99.35
2023-01-08T01:27:51.080Z,99.35
2023-01-08T01:28:51.079Z,99.46
2023-01-08T01:29:51.089Z,99.35
2023-01-08T01:30:51.060Z,99.35
2023-01-08T01:31:51.040Z,99.00
2023-01-08T01:32:51.007Z,98.94
2023-01-08T01:33:51.001Z,99.05
2023-01-08T01:34:51.030Z,99.46
2023-01-08T01:35:50.966Z,99.56
2023-01-08T01:36:50.974Z,99.98
2023-01-08T01:37:50.957Z,99.87
2023-01-08T01:38:50.934Z,99.99
2023-01-08T01:39:50.978Z,99.87
2023-01-08T01:40:50.908Z,99.98
2023-01-08T01:41:50.917Z,99.98
2023-01-08T01:42:50.906Z,99.99
2023-01-08T01:43:50.903Z,99.99
2023-01-08T01:44:50.923Z,99.99
2023-01-08T01:45:50.942Z,99.98
2023-01-08T01:46:50.858Z,99.77
2023-01-08T01:47:50.832Z,99.87
2023-01-08T01:48:50.869Z,99.99
2023-01-08T01:49:50.897Z,99.99
2023-01-08T01:50:50.847Z,99.99
2023-01-08T01:51:50.797Z,99.99
2023-01-08T01:52:50.773Z,99.99
2023-01-08T01:53:50.783Z,99.99
2023-01-08T01:54:50.814Z,99.99
2023-01-08T01:55:50.762Z,99.99
2023-01-08T01:56:50.730Z,99.99
2023-01-08T01:57:50.750Z,99.99
2023-01-08T01:58:50.707Z,99.99
2023-01-08T01:59:50.753Z,99.99
2023-01-08T02:00:50.697Z,99.99
2023-01-08T02:01:50.715Z,99.99
2023-01-08T02:02:50.673Z,99.99
2023-01-08T02:03:50.693Z,99.99
2023-01-08T02:04:50.689Z,99.99
2023-01-08T02:05:50.639Z,99.99
2023-01-08T02:06:50.605Z,99.99
2023-01-08T02:07:50.613Z,99.99
2023-01-08T02:08:50.588Z,99.99
2023-01-08T02:09:50.614Z,99.99
2023-01-08T02:10:50.563Z,99.99
2023-01-08T02:11:50.538Z,99.99
2023-01-08T02:12:50.558Z,99.99
2023-01-08T02:13:50.544Z,99.99
2023-01-08T02:14:50.550Z,99.99
2023-01-08T02:15:50.522Z,99.99
2023-01-08T02:16:50.599Z,99.99
2023-01-08T02:17:50.489Z,99.99
2023-01-08T02:18:50.509Z,99.99
2023-01-08T02:19:50.525Z,99.99
2023-01-08T02:20:50.451Z,99.99
2023-01-08T02:21:50.474Z,99.99
2023-01-08T02:22:50.438Z,99.99
2023-01-08T02:23:50.443Z,99.99
2023-01-08T02:24:50.466Z,99.99
2023-01-08T02:25:50.410Z,99.99
2023-01-08T02:26:50.401Z,99.99
2023-01-08T02:27:50.381Z,99.99
2023-01-08T02:28:50.381Z,99.99
2023-01-08T02:29:50.405Z,99.99
2023-01-08T02:30:50.391Z,99.99
2023-01-08T02:31:50.335Z,99.99
2023-01-08T02:32:50.324Z,99.99
2023-01-08T02:33:50.306Z,99.99
2023-01-08T02:34:50.325Z,99.99
2023-01-08T02:35:50.320Z,99.99
2023-01-08T02:36:50.266Z,99.99
2023-01-08T02:37:50.241Z,99.99
2023-01-08T02:38:50.246Z,99.99
2023-01-08T02:39:50.264Z,99.99
2023-01-08T02:40:50.208Z,99.99
2023-01-08T02:41:50.227Z,99.99
2023-01-08T02:42:50.221Z,99.99
2023-01-08T02:43:50.192Z,99.99
2023-01-08T02:44:50.218Z,99.99
2023-01-08T02:45:50.239Z,99.99
2023-01-08T02:46:50.178Z,99.99
2023-01-08T02:47:50.143Z,99.99
2023-01-08T02:48:50.161Z,99.99
2023-01-08T02:49:50.194Z,99.99
2023-01-08T02:50:50.112Z,99.99
2023-01-08T02:51:50.097Z,99.99
2023-01-08T02:52:50.089Z,99.99
2023-01-08T02:53:50.099Z,99.99
2023-01-08T02:54:50.119Z,99.99
2023-01-08T02:55:50.071Z,99.99
2023-01-08T02:56:50.050Z,99.99
2023-01-08T02:57:50.061Z,99.99
2023-01-08T02:58:50.030Z,99.99
2023-01-08T02:59:50.052Z,99.99
2023-01-08T03:00:50.026Z,99.99
2023-01-08T03:01:50.118Z,99.99
2023-01-08T03:02:50.737Z,99.99
2023-01-08T03:03:49.982Z,99.99
2023-01-08T03:04:49.981Z,99.99
2023-01-08T03:05:49.966Z,99.99
2023-01-08T03:06:49.946Z,99.99
2023-01-08T03:07:49.944Z,99.99
2023-01-08T03:08:49.899Z,99.99
2023-01-08T03:09:49.921Z,99.99
2023-01-08T03:10:49.885Z,99.99
2023-01-08T03:11:49.880Z,99.99
2023-01-08T03:12:49.872Z,99.99
2023-01-08T03:13:49.881Z,99.99
2023-01-08T03:14:49.904Z,99.99
2023-01-08T03:15:49.876Z,99.99
2023-01-08T03:16:49.898Z,99.99
2023-01-08T03:17:49.829Z,99.99
2023-01-08T03:18:49.818Z,99.99
2023-01-08T03:19:49.821Z,99.99
2023-01-08T03:20:49.841Z,99.99
2023-01-08T03:21:49.780Z,99.99
2023-01-08T03:22:49.758Z,99.99
2023-01-08T03:23:49.757Z,99.99
2023-01-08T03:24:49.749Z,99.99
2023-01-08T03:25:49.751Z,99.99
2023-01-08T03:26:49.732Z,99.99
2023-01-08T03:27:49.712Z,99.99
2023-01-08T03:28:49.691Z,99.99
2023-01-08T03:29:49.703Z,99.99
2023-01-08T03:30:49.788Z,99.99
2023-01-08T03:31:49.691Z,99.99
2023-01-08T03:32:49.652Z,99.99
2023-01-08T03:33:49.667Z,99.99
2023-01-08T03:34:49.649Z,99.99
2023-01-08T03:35:49.659Z,99.99
2023-01-08T03:36:49.607Z,99.99
2023-01-08T03:37:49.596Z,99.99
2023-01-08T03:38:49.585Z,99.99
2023-01-08T03:39:49.561Z,99.99
2023-01-08T03:40:49.584Z,99.99
2023-01-08T03:41:49.546Z,99.99
2023-01-08T03:42:49.553Z,99.99
2023-01-08T03:43:49.553Z,99.99
2023-01-08T03:44:49.539Z,99.99
2023-01-08T03:45:49.613Z,99.99
2023-01-08T03:46:49.495Z,99.99
2023-01-08T03:47:49.514Z,99.99
2023-01-08T03:48:49.487Z,99.99
2023-01-08T03:49:49.473Z,99.99
2023-01-08T03:50:49.495Z,99.99
2023-01-08T03:51:49.443Z,99.99
2023-01-08T03:52:49.427Z,99.71
2023-01-08T03:53:49.395Z,99.71
2023-01-08T03:54:49.417Z,99.86
2023-01-08T03:55:49.432Z,99.96
2023-01-08T03:56:49.395Z,99.99
2023-01-08T03:57:49.379Z,99.96
2023-01-08T03:58:49.386Z,99.99
2023-01-08T03:59:49.350Z,99.99
2023-01-08T04:00:49.373Z,99.99
2023-01-08T04:01:49.439Z,99.99
2023-01-08T04:02:49.315Z,99.99
2023-01-08T04:03:49.308Z,99.99
2023-01-08T04:04:49.286Z,99.99
2023-01-08T04:05:49.323Z,99.82
2023-01-08T04:06:49.301Z,99.82
2023-01-08T04:07:49.245Z,99.99
2023-01-08T04:08:49.251Z,99.82
2023-01-08T04:09:49.220Z,99.77
2023-01-08T04:10:49.247Z,99.56
2023-01-08T04:11:49.209Z,99.25
2023-01-08T04:12:49.187Z,99.35
2023-01-08T04:13:49.197Z,99.15
2023-01-08T04:14:49.204Z,98.94
2023-01-08T04:15:49.241Z,98.84
2023-01-08T04:16:49.159Z,99.15
2023-01-08T04:17:49.165Z,99.25
2023-01-08T04:18:49.132Z,99.25
2023-01-08T04:19:49.146Z,99.35
2023-01-08T04:20:49.180Z,99.25
2023-01-08T04:21:49.091Z,99.25
2023-01-08T04:22:49.075Z,99.35
2023-01-08T04:23:49.093Z,98.69
2023-01-08T04:24:49.072Z,98.69
2023-01-08T04:25:49.084Z,98.49
2023-01-08T04:26:49.053Z,98.28
2023-01-08T04:27:49.026Z,98.28
2023-01-08T04:28:49.026Z,97.72
2023-01-08T04:29:49.005Z,97.61
2023-01-08T04:30:49.061Z,97.41
2023-01-08T04:31:48.997Z,97.30
2023-01-08T04:32:48.973Z,97.30
2023-01-08T04:33:48.978Z,97.09
2023-01-08T04:34:48.950Z,97.20
2023-01-08T04:35:48.987Z,96.99
2023-01-08T04:36:48.928Z,97.41
2023-01-08T04:37:48.923Z,97.41
2023-01-08T04:38:48.919Z,97.20
2023-01-08T04:39:48.886Z,97.30
2023-01-08T04:40:48.918Z,97.51
2023-01-08T04:41:48.856Z,97.51
2023-01-08T04:42:48.854Z,97.61
2023-01-08T04:43:48.850Z,97.92
2023-01-08T04:44:48.840Z,97.92
2023-01-08T04:45:48.862Z,97.82
2023-01-08T04:46:48.812Z,97.61
2023-01-08T04:47:48.804Z,97.51
2023-01-08T04:48:48.810Z,96.99
2023-01-08T04:49:48.791Z,96.84
2023-01-08T04:50:48.825Z,96.64
2023-01-08T04:51:48.776Z,96.53
2023-01-08T04:52:48.763Z,96.53
2023-01-08T04:53:48.724Z,96.23
2023-01-08T04:54:48.727Z,96.23
2023-01-08T04:55:48.753Z,96.27
2023-01-08T04:56:48.701Z,96.58
2023-01-08T04:57:48.683Z,96.58
2023-01-08T04:58:48.704Z,96.58
2023-01-08T04:59:48.669Z,96.48
2023-01-08T05:00:48.697Z,96.69
2023-01-08T05:01:48.731Z,96.89
2023-01-08T05:02:48.789Z,96.89
2023-01-08T05:03:48.620Z,97.14
2023-01-08T05:04:48.604Z,97.45
2023-01-08T05:05:50.057Z,97.66
2023-01-08T05:06:48.598Z,97.45
2023-01-08T05:07:48.567Z,97.45
2023-01-08T05:08:48.555Z,97.34
2023-01-08T05:09:48.656Z,97.25
2023-01-08T05:10:48.567Z,97.25
2023-01-08T05:11:48.531Z,97.14
2023-01-08T05:12:48.512Z,97.25
2023-01-08T05:13:48.493Z,97.25
2023-01-08T05:14:48.528Z,97.55
2023-01-08T05:15:48.535Z,97.76
2023-01-08T05:16:48.462Z,97.76
2023-01-08T05:17:48.459Z,97.81
2023-01-08T05:18:48.441Z,97.91
2023-01-08T05:19:48.455Z,98.22
2023-01-08T05:20:48.471Z,98.11
2023-01-08T05:21:48.410Z,98.01
2023-01-08T05:22:48.427Z,98.22
2023-01-08T05:23:48.425Z,98.01
2023-01-08T05:24:48.393Z,98.43
2023-01-08T05:25:48.406Z,98.84
2023-01-08T05:26:48.372Z,98.53
2023-01-08T05:27:48.340Z,98.53
2023-01-08T05:28:48.346Z,98.22
2023-01-08T05:29:48.330Z,98.47
2023-01-08T05:30:48.399Z,98.99
2023-01-08T05:31:48.318Z,99.19
2023-01-08T05:32:48.290Z,99.55
2023-01-08T05:33:48.299Z,99.76
2023-01-08T05:34:48.283Z,99.99
2023-01-08T05:35:48.299Z,99.99
2023-01-08T05:36:48.257Z,99.99
2023-01-08T05:37:48.253Z,99.99
2023-01-08T05:38:48.293Z,99.99
2023-01-08T05:39:48.212Z,99.99
2023-01-08T05:40:48.255Z,99.99
2023-01-08T05:41:48.177Z,99.99
2023-01-08T05:42:48.178Z,99.99
2023-01-08T05:43:48.145Z,99.99
2023-01-08T05:44:48.209Z,99.99
2023-01-08T05:45:48.177Z,99.99
2023-01-08T05:46:48.143Z,99.99
2023-01-08T05:47:48.117Z,99.99
2023-01-08T05:48:48.122Z,99.99
2023-01-08T05:49:48.089Z,99.99
2023-01-08T05:50:48.132Z,99.99
2023-01-08T05:51:48.076Z,99.99
2023-01-08T05:52:48.087Z,99.99
2023-01-08T05:53:48.053Z,99.99
2023-01-08T05:54:48.053Z,99.99
2023-01-08T05:55:48.091Z,99.99
2023-01-08T05:56:48.027Z,99.99
2023-01-08T05:57:47.994Z,99.99
2023-01-08T05:58:48.023Z,99.99
2023-01-08T05:59:47.994Z,99.99
2023-01-08T06:00:48.020Z,99.99
2023-01-08T06:01:48.049Z,99.99
2023-01-08T06:02:48.164Z,99.99
2023-01-08T06:03:47.955Z,99.99
2023-01-08T06:04:47.931Z,99.99
2023-01-08T06:05:47.942Z,99.99
2023-01-08T06:06:47.916Z,99.99
2023-01-08T06:07:47.909Z,99.99
2023-01-08T06:08:47.900Z,99.99
2023-01-08T06:09:47.863Z,99.99
2023-01-08T06:10:47.901Z,99.99
2023-01-08T06:11:47.848Z,99.99
2023-01-08T06:12:47.843Z,99.99
2023-01-08T06:13:47.809Z,99.99
2023-01-08T06:14:47.826Z,99.99
2023-01-08T06:15:47.894Z,99.99
2023-01-08T06:16:47.795Z,99.99
2023-01-08T06:17:47.783Z,99.99
2023-01-08T06:18:47.768Z,99.99
2023-01-08T06:19:47.767Z,99.99
2023-01-08T06:20:47.793Z,99.99
2023-01-08T06:21:47.765Z,99.99
2023-01-08T06:22:47.753Z,99.99
2023-01-08T06:23:47.732Z,99.99
2023-01-08T06:24:47.714Z,99.99
2023-01-08T06:25:47.741Z,99.99
2023-01-08T06:26:47.715Z,99.99
2023-01-08T06:27:47.666Z,99.99
2023-01-08T06:28:47.666Z,99.99
2023-01-08T06:29:47.649Z,99.99
2023-01-08T06:30:47.657Z,99.99
2023-01-08T06:31:47.676Z,99.99
2023-01-08T06:32:47.649Z,99.99
2023-01-08T06:33:47.608Z,99.99
2023-01-08T06:34:47.663Z,99.99
2023-01-08T06:35:47.590Z,99.99
2023-01-08T06:36:47.610Z,99.99
2023-01-08T06:37:47.559Z,99.99
2023-01-08T06:38:47.553Z,99.99
2023-01-08T06:39:47.551Z,99.99
2023-01-08T06:40:47.534Z,99.99
2023-01-08T06:41:47.549Z,99.99
2023-01-08T06:42:47.528Z,99.99
2023-01-08T06:43:47.487Z,99.99
2023-01-08T06:44:47.475Z,99.99
2023-01-08T06:45:47.468Z,99.99
2023-01-08T06:46:47.611Z,99.99
2023-01-08T06:47:47.443Z,99.25
2023-01-08T06:48:47.466Z,98.84
2023-01-08T06:49:47.545Z,98.94
2023-01-08T06:50:47.426Z,98.84
2023-01-08T06:51:47.437Z,99.05
2023-01-08T06:52:47.402Z,99.05
2023-01-08T06:53:47.401Z,99.05
2023-01-08T06:54:47.474Z,98.18
2023-01-08T06:55:47.366Z,98.18
2023-01-08T06:56:53.614Z,98.18
2023-01-08T06:57:48.324Z,97.97
2023-01-08T06:58:47.342Z,97.76
2023-01-08T06:59:47.294Z,97.66
2023-01-08T07:00:47.329Z,97.66
2023-01-08T07:01:47.448Z,97.30
2023-01-08T07:02:47.357Z,97.55
2023-01-08T07:03:47.268Z,97.86
2023-01-08T07:04:47.340Z,98.07
2023-01-08T07:05:47.263Z,98.18
2023-01-08T07:06:47.285Z,98.18
2023-01-08T07:07:47.222Z,98.43
2023-01-08T07:08:47.221Z,98.07
2023-01-08T07:09:47.241Z,98.01
2023-01-08T07:10:47.191Z,98.01
2023-01-08T07:11:47.218Z,98.01
2023-01-08T07:12:47.157Z,98.11
2023-01-08T07:13:47.143Z,97.86
2023-01-08T07:14:47.132Z,97.76
2023-01-08T07:15:47.194Z,97.76
2023-01-08T07:16:47.216Z,97.97
2023-01-08T07:17:47.101Z,97.97
2023-01-08T07:18:47.102Z,97.86
2023-01-08T07:19:47.087Z,97.86
2023-01-08T07:20:47.109Z,97.66
2023-01-08T07:21:47.101Z,97.20
2023-01-08T07:22:47.054Z,97.09
2023-01-08T07:23:47.079Z,97.20
2023-01-08T07:24:47.023Z,97.20
2023-01-08T07:25:47.031Z,96.99
2023-01-08T07:26:47.120Z,96.69
2023-01-08T07:27:47.003Z,96.33
2023-01-08T07:28:46.984Z,96.53
2023-01-08T07:29:46.993Z,96.69
2023-01-08T07:30:46.973Z,96.79
2023-01-08T07:31:46.965Z,96.69
2023-01-08T07:32:46.938Z,96.44
2023-01-08T07:33:46.942Z,96.64
2023-01-08T07:34:46.948Z,96.58
2023-01-08T07:35:46.912Z,96.33
2023-01-08T07:36:46.945Z,96.53
2023-01-08T07:37:46.878Z,96.64
2023-01-08T07:38:46.884Z,96.64
2023-01-08T07:39:46.840Z,96.33
2023-01-08T07:40:46.842Z,96.12
2023-01-08T07:41:46.871Z,96.12
2023-01-08T07:42:46.831Z,96.02
2023-01-08T07:43:46.805Z,96.02
2023-01-08T07:44:46.801Z,96.23
2023-01-08T07:45:46.790Z,96.02
2023-01-08T07:46:46.865Z,96.23
2023-01-08T07:47:46.760Z,96.33
2023-01-08T07:48:46.769Z,96.33
2023-01-08T07:49:46.752Z,96.44
2023-01-08T07:50:46.745Z,95.92
2023-01-08T07:51:46.765Z,96.12
2023-01-08T07:52:46.706Z,96.12
2023-01-08T07:53:46.687Z,96.08
2023-01-08T07:54:46.716Z,95.77
2023-01-08T07:55:46.689Z,96.08
2023-01-08T07:56:46.701Z,95.67
2023-01-08T07:57:46.663Z,95.87
2023-01-08T07:58:46.635Z,95.46
2023-01-08T07:59:46.657Z,95.15
2023-01-08T08:00:46.624Z,95.31
2023-01-08T08:01:46.925Z,94.80
2023-01-08T08:02:46.842Z,94.70
2023-01-08T08:03:46.591Z,94.90
2023-01-08T08:04:46.574Z,94.90
2023-01-08T08:05:46.565Z,95.00
2023-01-08T08:06:46.597Z,95.00
2023-01-08T08:07:46.546Z,94.90
2023-01-08T08:08:46.533Z,95.00
2023-01-08T08:09:46.532Z,95.10
2023-01-08T08:10:46.512Z,95.52
2023-01-08T08:11:46.500Z,94.59
2023-01-08T08:12:46.512Z,94.13
2023-01-08T08:13:46.477Z,93.62
2023-01-08T08:14:46.473Z,93.58
2023-01-08T08:15:46.480Z,93.27
2023-01-08T08:16:46.428Z,93.27
2023-01-08T08:17:46.455Z,93.06
2023-01-08T08:18:46.419Z,92.24
2023-01-08T08:19:46.421Z,92.30
2023-01-08T08:20:46.389Z,91.89
2023-01-08T08:21:46.399Z,91.93
2023-01-08T08:22:46.405Z,92.55
2023-01-08T08:23:46.377Z,93.21
2023-01-08T08:24:46.360Z,93.21
2023-01-08T08:25:46.346Z,93.62
2023-01-08T08:26:46.334Z,93.77
2023-01-08T08:27:46.382Z,93.87
2023-01-08T08:28:46.303Z,93.98
2023-01-08T08:29:46.311Z,93.98
2023-01-08T08:30:46.288Z,93.87
2023-01-08T08:31:46.283Z,94.08
2023-01-08T08:32:46.306Z,94.28
2023-01-08T08:33:46.291Z,94.38
2023-01-08T08:34:46.230Z,94.59
2023-01-08T08:35:46.232Z,94.38
2023-01-08T08:36:46.226Z,94.08
2023-01-08T08:37:46.234Z,94.38
2023-01-08T08:38:46.193Z,94.24
2023-01-08T08:39:46.186Z,93.62
2023-01-08T08:40:46.159Z,93.62
2023-01-08T08:41:46.168Z,93.83
2023-01-08T08:42:46.203Z,94.20
2023-01-08T08:43:46.147Z,93.58
2023-01-08T08:44:46.128Z,93.58
2023-01-08T08:45:46.110Z,92.76
2023-01-08T08:46:46.156Z,93.37
2023-01-08T08:47:46.089Z,92.96
2023-01-08T08:48:46.127Z,93.74
2023-01-08T08:49:46.075Z,93.74
2023-01-08T08:50:46.067Z,92.61
2023-01-08T08:51:46.050Z,92.82
2023-01-08T08:52:46.024Z,92.71
2023-01-08T08:53:46.077Z,91.89
2023-01-08T08:54:46.015Z,92.05
2023-01-08T08:55:46.021Z,91.06
2023-01-08T08:56:45.988Z,91.38
2023-01-08T08:57:45.985Z,91.38
2023-01-08T08:58:46.011Z,91.33
2023-01-08T08:59:45.962Z,91.06
2023-01-08T09:00:45.939Z,91.23
2023-01-08T09:01:46.004Z,91.33
2023-01-08T09:02:46.099Z,91.08
2023-01-08T09:03:45.945Z,91.19
2023-01-08T09:04:45.899Z,90.78
2023-01-08T09:05:45.887Z,90.16
2023-01-08T09:06:45.876Z,90.26
2023-01-08T09:07:45.865Z,89.79
2023-01-08T09:08:45.887Z,91.29
2023-01-08T09:09:45.844Z,91.19
2023-01-08T09:10:45.827Z,90.88
2023-01-08T09:11:45.823Z,90.47
2023-01-08T09:12:45.798Z,90.67
2023-01-08T09:13:45.829Z,90.67
2023-01-08T09:14:45.776Z,90.16
2023-01-08T09:15:45.766Z,90.88
2023-01-08T09:16:45.757Z,89.85
2023-01-08T09:17:45.791Z,89.81
2023-01-08T09:18:45.773Z,89.09
2023-01-08T09:19:45.710Z,88.33
2023-01-08T09:20:45.724Z,88.43
2023-01-08T09:21:45.700Z,88.49
2023-01-08T09:22:45.685Z,87.10
2023-01-08T09:23:45.693Z,87.37
2023-01-08T09:24:45.679Z,87.98
2023-01-08T09:25:45.678Z,87.94
2023-01-08T09:26:45.650Z,88.10
2023-01-08T09:27:45.659Z,86.05
2023-01-08T09:28:45.655Z,86.05
2023-01-08T09:29:45.632Z,85.91
2023-01-08T09:30:45.613Z,85.44
2023-01-08T09:31:45.688Z,86.36
2023-01-08T09:32:45.590Z,86.46
2023-01-08T09:33:45.569Z,86.05
2023-01-08T09:34:45.596Z,86.30
2023-01-08T09:35:45.554Z,87.53
2023-01-08T09:36:45.540Z,86.91
2023-01-08T09:37:45.526Z,86.71
2023-01-08T09:38:45.519Z,87.53
2023-01-08T09:39:50.980Z,87.12
2023-01-08T09:40:46.486Z,86.75
2023-01-08T09:41:45.497Z,87.77
2023-01-08T09:42:45.462Z,87.73
2023-01-08T09:43:45.454Z,87.53
2023-01-08T09:44:45.494Z,87.22
2023-01-08T09:45:45.440Z,87.73
2023-01-08T09:46:45.428Z,88.04
2023-01-08T09:47:45.442Z,87.12
2023-01-08T09:48:45.410Z,87.12
2023-01-08T09:49:45.428Z,88.14
2023-01-08T09:50:45.366Z,87.22
2023-01-08T09:51:45.357Z,87.12
2023-01-08T09:52:45.339Z,87.32
2023-01-08T09:53:45.334Z,87.16
2023-01-08T09:54:45.370Z,87.43
2023-01-08T09:55:45.322Z,86.91
2023-01-08T09:56:45.293Z,87.53
2023-01-08T09:57:45.345Z,87.53
2023-01-08T09:58:45.292Z,87.57
2023-01-08T09:59:45.317Z,87.57
2023-01-08T10:00:45.314Z,87.57
2023-01-08T10:01:45.382Z,87.88
2023-01-08T10:02:45.255Z,87.98
2023-01-08T10:03:45.263Z,88.45
2023-01-08T10:04:45.254Z,88.24
2023-01-08T10:05:45.204Z,87.57
2023-01-08T10:06:45.196Z,87.67
2023-01-08T10:07:45.192Z,88.35
2023-01-08T10:09:45.208Z,87.84
2023-01-08T10:10:45.161Z,87.12
2023-01-08T10:11:45.137Z,87.94
2023-01-08T10:12:45.131Z,87.73
2023-01-08T10:13:45.122Z,87.43
2023-01-08T10:14:45.146Z,87.73
2023-01-08T10:15:45.103Z,87.59
2023-01-08T10:16:45.081Z,87.08
2023-01-08T10:17:45.087Z,87.49
2023-01-08T10:18:45.065Z,86.87
2023-01-08T10:19:45.097Z,87.08
2023-01-08T10:20:45.040Z,87.18
2023-01-08T10:21:45.040Z,86.36
2023-01-08T10:22:45.031Z,87.38
2023-01-08T10:23:45.004Z,88.31
2023-01-08T10:24:45.007Z,87.49
2023-01-08T10:25:44.990Z,87.08
2023-01-08T10:26:44.969Z,86.46
2023-01-08T10:27:44.991Z,87.08
2023-01-08T10:28:44.958Z,87.28
2023-01-08T10:29:44.987Z,86.77
2023-01-08T10:30:44.913Z,87.18
2023-01-08T10:31:44.962Z,88.21
2023-01-08T10:32:44.906Z,86.98
2023-01-08T10:33:44.893Z,87.18
2023-01-08T10:34:44.932Z,86.81
2023-01-08T10:35:44.887Z,87.59
2023-01-08T10:36:44.857Z,87.28
2023-01-08T10:37:44.864Z,87.38
2023-01-08T10:38:44.831Z,87.59
2023-01-08T10:39:44.818Z,87.70
2023-01-08T10:40:44.857Z,87.08
2023-01-08T10:41:44.866Z,87.63
2023-01-08T10:42:44.802Z,87.12
2023-01-08T10:43:44.793Z,87.18
2023-01-08T10:44:44.759Z,86.91
2023-01-08T10:45:44.833Z,87.53
2023-01-08T10:46:44.774Z,87.28
2023-01-08T10:47:44.727Z,87.02
2023-01-08T10:48:44.758Z,87.28
2023-01-08T10:49:44.720Z,87.18
2023-01-08T10:50:44.741Z,86.77
2023-01-08T10:51:44.703Z,87.08
2023-01-08T10:52:44.670Z,86.71
2023-01-08T10:53:44.686Z,86.98
2023-01-08T10:54:44.640Z,86.57
2023-01-08T10:55:44.703Z,87.28
2023-01-08T10:56:44.631Z,86.66
2023-01-08T10:57:44.654Z,86.25
2023-01-08T10:58:44.654Z,86.46
2023-01-08T10:59:44.615Z,86.46
2023-01-08T11:00:44.699Z,86.66
2023-01-08T11:01:44.677Z,86.71
2023-01-08T11:02:44.657Z,87.02
2023-01-08T11:03:44.560Z,87.22
2023-01-08T11:04:44.545Z,87.12
2023-01-08T11:05:44.564Z,87.63
2023-01-08T11:06:44.519Z,87.22
2023-01-08T11:07:44.530Z,87.53
2023-01-08T11:08:44.494Z,87.43
2023-01-08T11:09:44.513Z,87.12
2023-01-08T11:10:44.541Z,87.43
2023-01-08T11:11:44.494Z,86.81
2023-01-08T11:12:44.497Z,87.22
2023-01-08T11:13:44.445Z,86.87
2023-01-08T11:14:44.458Z,86.66
2023-01-08T11:15:44.473Z,87.08
2023-01-08T11:16:44.417Z,86.98
2023-01-08T11:17:44.414Z,87.04
2023-01-08T11:18:44.386Z,86.63
2023-01-08T11:19:44.385Z,86.42
2023-01-08T11:20:44.414Z,86.63
2023-01-08T11:21:44.381Z,86.83
2023-01-08T11:22:44.346Z,86.63
2023-01-08T11:23:44.361Z,85.91
2023-01-08T11:24:44.322Z,85.39
2023-01-08T11:25:44.345Z,85.19
2023-01-08T11:26:44.292Z,86.42
2023-01-08T11:27:44.276Z,85.71
2023-01-08T11:28:44.282Z,85.60
2023-01-08T11:29:44.276Z,85.80
2023-01-08T11:30:44.286Z,86.11
2023-01-08T11:31:44.363Z,85.39
2023-01-08T11:32:44.240Z,86.01
2023-01-08T11:33:44.215Z,87.34
2023-01-08T11:34:44.208Z,85.97
2023-01-08T11:35:44.265Z,85.56
2023-01-08T11:36:44.174Z,85.05
2023-01-08T11:37:44.180Z,84.88
2023-01-08T11:38:44.168Z,85.30
2023-01-08T11:39:44.171Z,85.19
2023-01-08T11:40:44.173Z,86.42
2023-01-08T11:41:44.130Z,85.80
2023-01-08T11:42:44.114Z,86.52
2023-01-08T11:43:44.105Z,85.09
2023-01-08T11:44:44.096Z,85.54
2023-01-08T11:45:44.162Z,85.64
2023-01-08T11:46:44.087Z,85.85
2023-01-08T11:47:44.073Z,85.23
2023-01-08T11:48:44.061Z,85.74
2023-01-08T11:49:44.045Z,85.64
2023-01-08T11:50:44.063Z,85.85
2023-01-08T11:51:44.023Z,85.44
2023-01-08T11:52:44.003Z,85.33
2023-01-08T11:53:44.002Z,85.47
2023-01-08T11:54:43.964Z,85.99
2023-01-08T11:55:44.010Z,86.40
2023-01-08T11:56:43.955Z,86.50
2023-01-08T11:57:43.976Z,86.91
2023-01-08T11:58:43.956Z,86.09
2023-01-08T11:59:43.920Z,86.19
2023-01-08T12:00:43.929Z,86.60
2023-01-08T12:01:44.061Z,86.50
2023-01-08T12:02:43.883Z,87.02
2023-01-08T12:03:43.891Z,87.16
2023-01-08T12:04:43.886Z,87.26
2023-01-08T12:05:43.872Z,86.95
2023-01-08T12:06:43.884Z,87.16
2023-01-08T12:07:43.849Z,87.67
2023-01-08T12:08:43.811Z,87.67
2023-01-08T12:09:43.822Z,87.77
2023-01-08T12:10:43.805Z,87.37
2023-01-08T12:11:43.823Z,88.08
2023-01-08T12:12:43.792Z,87.37
2023-01-08T12:13:43.785Z,87.26
2023-01-08T12:14:43.775Z,87.37
2023-01-08T12:15:43.731Z,87.05
2023-01-08T12:16:43.818Z,86.65
2023-01-08T12:17:43.733Z,86.33
2023-01-08T12:18:43.733Z,87.05
2023-01-08T12:19:43.717Z,86.13
2023-01-08T12:20:43.732Z,86.24
2023-01-08T12:21:43.698Z,86.54
2023-01-08T12:22:43.668Z,86.50
2023-01-08T12:23:43.644Z,85.68
2023-01-08T12:24:43.630Z,85.89
2023-01-08T12:25:43.624Z,85.99
2023-01-08T12:26:43.642Z,86.60
2023-01-08T12:27:57.768Z,86.30
2023-01-08T12:28:44.594Z,86.09
2023-01-08T12:29:43.587Z,86.40
2023-01-08T12:30:43.601Z,86.19
2023-01-08T12:31:46.350Z,86.81
2023-01-08T12:32:44.561Z,86.13
2023-01-08T12:33:43.556Z,86.95
2023-01-08T12:34:43.549Z,86.65
2023-01-08T12:35:43.519Z,86.75
2023-01-08T12:36:43.587Z,86.65
2023-01-08T12:37:43.500Z,86.95
2023-01-08T12:38:43.491Z,87.26
2023-01-08T12:39:43.481Z,86.99
2023-01-08T12:40:43.474Z,86.89
2023-01-08T12:41:43.488Z,87.20
2023-01-08T12:42:47.320Z,87.40
2023-01-08T12:43:44.431Z,87.20
2023-01-08T12:44:43.423Z,87.51
2023-01-08T12:45:43.475Z,87.71
2023-01-08T12:46:43.434Z,87.20
2023-01-08T12:47:43.379Z,87.10
2023-01-08T12:48:43.379Z,87.40
2023-01-08T12:49:43.372Z,87.51
2023-01-08T12:50:43.348Z,86.99
2023-01-08T12:51:43.373Z,87.20
2023-01-08T12:52:43.325Z,87.71
2023-01-08T12:53:43.307Z,88.18